Latest Weather Observations for Wynyard

IDT60801

Issued at 2:05 pm EST Sunday 31 August 2014 (issued every 30 minutes, with the page automatically refreshed every 10 minutes)

About weather observations | Map of weather stations | Latest weather observations for TAS | Other Formats
Station Details ID: 091107 Name: WYNYARD AIRPORT Lat: -41.00 Lon: 145.73 Height: 12.0 m
Data from the previous 72 hours. | See also: Recent months at Wynyard
Date/Time
EST
Temp
°C
App
Temp
°C
Dew
Point
Rel
Hum
%
Delta-T
°C
Wind Press
QNH
hPa
Press
MSL
hPa
Rain
since 9 am
mm
Dir
 
Spd
km/h
Gust
km/h
Spd
kts
Gust
kts
31/02:00pm 13.4 10.8 13.2 99 0.1 E 19 28 10 15 1014.8 1014.9 0.0
31/01:44pm 13.5 11.3 13.3 99 0.1 E 17 22 9 12 1015.1 1015.2 0.0
31/01:42pm 13.7 11.6 13.5 99 0.1 E 17 22 9 12 1015.1 1015.2 0.0
31/01:30pm 13.4 10.6 13.2 99 0.1 E 20 26 11 14 1015.4 1015.5 0.0
31/01:00pm 13.8 11.6 13.2 96 0.3 E 17 24 9 13 1015.4 1015.5 0.0
31/12:30pm 13.4 10.5 12.8 96 0.3 E 20 28 11 15 1015.7 1015.8 0.0
31/12:00pm 13.1 10.1 12.6 97 0.3 E 20 26 11 14 1016.4 1016.5 0.0
31/11:30am 13.1 10.3 12.5 96 0.3 E 19 28 10 15 1017.1 1017.1 0.0
31/11:00am 12.8 9.7 12.2 96 0.3 E 20 26 11 14 1017.3 1017.3 0.0
31/10:30am 12.4 8.8 11.9 97 0.3 E 22 32 12 17 1017.6 1017.6 0.0
31/10:00am 12.6 10.5 12.3 98 0.2 E 15 28 8 15 1018.0 1018.0 0.0
31/09:30am 12.3 9.2 11.7 96 0.3 E 19 24 10 13 1018.4 1018.4 0.0
31/09:00am 12.2 8.9 11.6 96 0.3 ESE 20 28 11 15 1018.5 1018.5 0.0
31/08:30am 12.0 8.3 11.4 96 0.3 ESE 22 30 12 16 1018.7 1018.7 0.0
31/08:00am 11.8 8.0 11.2 96 0.3 ESE 22 30 12 16 1018.7 1018.7 0.0
31/07:37am 11.7 8.2 10.9 95 0.4 ESE 20 28 11 15 1018.8 1018.8 0.0
31/07:30am 11.6 8.1 11.0 96 0.3 ESE 20 28 11 15 1018.8 1018.8 0.0
31/07:00am 11.6 8.3 10.8 95 0.4 E 19 24 10 13 1018.9 1018.9 0.0
31/06:30am 11.5 7.9 10.7 95 0.4 E 20 32 11 17 1018.9 1018.9 0.0
31/06:00am 11.5 8.0 10.9 96 0.3 ESE 20 28 11 15 1018.9 1018.9 0.0
31/05:30am 11.5 8.2 10.9 96 0.3 E 19 28 10 15 1018.7 1018.7 0.0
31/05:00am 11.5 8.0 10.9 96 0.3 E 20 26 11 14 1018.9 1018.9 0.0
31/04:30am 11.5 8.0 11.0 97 0.3 ESE 20 26 11 14 1019.1 1019.1 0.0
31/04:00am 11.4 8.5 10.9 97 0.3 E 17 28 9 15 1019.0 1019.0 0.0
31/03:30am 11.5 8.6 11.0 97 0.3 E 17 22 9 12 1019.7 1019.7 0.0
31/03:00am 11.4 8.0 11.1 98 0.2 E 20 26 11 14 1019.9 1019.9 0.0
31/02:30am 11.6 8.7 11.1 97 0.3 E 17 24 9 13 1020.3 1020.3 0.0
31/02:00am 11.6 8.1 11.0 96 0.3 E 20 24 11 13 1021.0 1021.0 0.0
31/01:30am 11.5 9.0 10.9 96 0.3 E 15 20 8 11 1021.3 1021.3 0.0
31/01:00am 11.6 8.3 10.8 95 0.4 ESE 19 22 10 12 1021.6 1021.6 0.0
31/12:30am 11.6 8.2 10.7 94 0.5 ESE 19 24 10 13 1021.8 1021.8 0.0
31/12:00am 11.7 8.4 10.8 94 0.5 ESE 19 26 10 14 1021.9 1021.9 0.0
 
Date/Time
EST
Temp
°C
App
Temp
°C
Dew
Point
Rel
Hum
%
Delta-T
°C
Wind Press
QNH
hPa
Press
MSL
hPa
Rain
since 9 am
mm
Dir
 
Spd
km/h
Gust
km/h
Spd
kts
Gust
kts
30/11:30pm 11.6 8.1 10.8 95 0.4 ESE 20 28 11 15 1021.9 1021.9 0.0
30/11:00pm 11.3 8.3 10.7 96 0.3 ESE 17 26 9 14 1022.2 1022.2 0.0
30/10:43pm 11.1 8.0 10.3 95 0.4 ESE 17 22 9 12 1022.6 1022.6 0.0
30/10:33pm 11.1 8.0 10.3 95 0.4 ESE 17 22 9 12 1022.7 1022.7 0.0
30/10:30pm 11.1 8.0 10.3 95 0.4 ESE 17 22 9 12 1022.8 1022.8 0.0
30/10:00pm 11.2 8.5 10.4 95 0.4 ESE 15 19 8 10 1023.4 1023.4 0.0
30/09:30pm 11.1 8.8 10.6 97 0.3 ESE 13 17 7 9 1023.6 1023.6 0.0
30/09:00pm 10.7 8.0 10.4 98 0.2 ESE 15 20 8 11 1023.7 1023.7 0.0
30/08:30pm 10.1 7.6 9.8 98 0.1 SE 13 19 7 10 1023.8 1023.8 0.0
30/08:00pm 11.0 7.6 10.4 96 0.3 E 19 22 10 12 1023.8 1023.8 0.0
30/07:30pm 11.1 8.1 10.6 97 0.3 E 17 24 9 13 1023.8 1023.8 0.0
30/07:00pm 10.9 8.2 10.3 96 0.3 E 15 19 8 10 1023.7 1023.7 0.0
30/06:30pm 11.1 8.4 10.2 94 0.5 E 15 22 8 12 1023.7 1023.7 0.0
30/06:00pm 11.0 8.5 9.6 91 0.7 E 13 17 7 9 1023.9 1023.9 0.0
30/05:30pm 11.8 8.9 9.5 86 1.2 E 15 22 8 12 1023.9 1023.9 0.0
30/05:00pm 12.4 9.5 9.6 83 1.4 E 15 24 8 13 1024.0 1024.0 0.0
30/04:30pm 12.5 9.6 9.7 83 1.4 E 15 22 8 12 1024.4 1024.4 0.0
30/04:00pm 13.4 10.2 9.8 79 1.8 E 17 24 9 13 1024.6 1024.6 0.0
30/03:30pm 13.4 10.5 10.9 85 1.3 ENE 17 22 9 12 1024.8 1024.8 0.0
30/03:00pm 13.1 9.7 10.6 85 1.3 ENE 19 26 10 14 1024.9 1024.9 0.0
30/02:39pm 13.4 10.4 10.6 83 1.5 ENE 17 24 9 13 1025.0 1025.0 0.0
30/02:30pm 13.6 10.7 10.9 84 1.4 E 17 26 9 14 1025.1 1025.1 0.0
30/02:00pm 13.3 10.2 12.2 93 0.6 E 20 28 11 15 1025.4 1025.4 0.0
30/01:56pm 13.4 10.5 12.3 93 0.6 E 19 28 10 15 1025.5 1025.5 0.0
30/01:30pm 13.7 11.4 12.9 95 0.4 E 17 26 9 14 1025.6 1025.6 0.0
30/01:00pm 14.7 12.6 13.7 94 0.6 E 17 28 9 15 1026.0 1026.0 0.0
30/12:31pm 13.3 10.4 12.2 93 0.6 E 19 26 10 14 1026.4 1026.4 0.0
30/12:30pm 13.0 9.7 11.7 92 0.7 E 20 26 11 14 1026.4 1026.4 0.0
30/12:04pm 13.7 10.4 12.9 95 0.4 E 22 28 12 15 1026.9 1026.9 0.0
30/12:00pm 13.3 10.3 12.5 95 0.4 E 20 28 11 15 1026.9 1026.9 0.0
30/11:30am 13.1 9.8 11.7 91 0.7 E 20 28 11 15 1027.3 1027.3 0.0
30/11:00am 13.8 11.1 12.9 94 0.5 E 19 28 10 15 1027.5 1027.5 0.0
30/10:30am 13.0 10.0 12.1 94 0.5 E 19 28 10 15 1027.8 1027.8 0.0
30/10:00am 13.0 10.1 12.2 95 0.4 E 19 26 10 14 1028.2 1028.2 0.0
30/09:30am 12.4 9.5 12.2 99 0.1 E 19 26 10 14 1028.4 1028.4 0.0
30/09:00am 11.9 8.8 11.7 99 0.1 E 19 26 10 14 1028.7 1028.7 0.0
30/08:43am 11.7 9.0 11.7 100 0.0 E 17 22 9 12 1028.9 1028.9 0.0
30/08:30am 9.9 9.2 9.9 100 0.0 SW 4 7 2 4 1029.0 1029.0 0.0
30/08:08am 8.7 7.2 8.6 99 0.0 WNW 6 7 3 4 1029.2 1029.2 0.0
30/08:00am 8.2 6.4 8.1 99 0.0 WNW 7 7 4 4 1029.2 1029.2 0.0
30/07:45am 7.8 6.0 7.8 100 0.0 WNW 7 9 4 5 1029.2 1029.2 0.0
30/07:30am 7.0 5.0 7.0 100 0.0 W 7 9 4 5 1029.2 1029.2 0.0
30/07:00am 6.1 4.0 6.0 99 0.0 NW 6 9 3 5 1028.9 1028.9 0.0
30/06:30am 6.2 3.6 6.1 99 0.0 W 9 11 5 6 1028.9 1028.9 0.0
30/06:00am 5.9 3.6 5.9 100 0.0 WNW 7 9 4 5 1028.7 1028.7 0.0
30/05:30am 4.5 1.6 4.4 99 0.0 W 9 9 5 5 1028.6 1028.6 0.0
30/05:08am 3.8 0.7 3.7 99 0.0 WNW 9 11 5 6 1028.5 1028.5 0.0
30/05:00am 3.6 0.5 3.5 99 0.0 WNW 9 9 5 5 1028.5 1028.5 0.0
30/04:30am 3.2 -0.4 3.1 99 0.0 W 11 11 6 6 1028.6 1028.6 0.0
30/04:00am 3.5 0.4 3.4 99 0.0 WNW 9 11 5 6 1028.5 1028.5 0.0
30/03:30am 4.1 1.1 4.0 99 0.0 WNW 9 11 5 6 1028.7 1028.7 0.0
30/03:00am 3.7 0.6 3.6 99 0.0 W 9 11 5 6 1028.9 1028.9 0.0
30/02:47am 3.5 0.4 3.4 99 0.0 W 9 11 5 6 1029.0 1029.0 0.0
30/02:30am 3.5 0.4 3.4 99 0.0 W 9 9 5 5 1029.1 1029.1 0.0
30/02:22am 3.9 1.2 3.8 99 0.0 W 7 9 4 5 1029.2 1029.2 0.0
30/02:00am 3.9 0.8 3.8 99 0.0 W 9 9 5 5 1029.4 1029.4 0.0
30/01:30am 4.6 2.1 4.5 99 0.0 W 7 7 4 4 1029.6 1029.6 0.0
30/01:00am 4.2 1.6 4.1 99 0.0 W 7 9 4 5 1029.9 1029.9 0.0
30/12:40am 4.7 2.2 4.6 99 0.0 W 7 9 4 5 1029.8 1029.8 0.0
30/12:30am 5.0 2.5 4.9 99 0.0 W 7 9 4 5 1029.8 1029.8 0.0
30/12:27am 4.3 1.7 4.2 99 0.0 W 7 9 4 5 1029.8 1029.8 0.0
30/12:00am 5.7 3.0 5.7 100 0.0 W 9 9 5 5 1029.9 1029.9 0.0
 
Date/Time
EST
Temp
°C
App
Temp
°C
Dew
Point
Rel
Hum
%
Delta-T
°C
Wind Press
QNH
hPa
Press
MSL
hPa
Rain
since 9 am
mm
Dir
 
Spd
km/h
Gust
km/h
Spd
kts
Gust
kts
29/11:48pm 5.0 2.5 4.9 99 0.0 W 7 7 4 4 1029.9 1029.9 0.0
29/11:30pm 5.4 3.0 5.4 100 0.0 W 7 9 4 5 1029.9 1029.9 0.0
29/11:00pm 5.8 3.1 5.7 99 0.0 W 9 9 5 5 1029.8 1029.8 0.0
29/10:36pm 7.0 5.0 7.0 100 0.0 WNW 7 9 4 5 1029.9 1029.9 0.0
29/10:30pm 7.1 5.1 7.1 100 0.0 WSW 7 7 4 4 1029.9 1029.9 0.0
29/10:00pm 5.7 3.0 5.6 99 0.0 SW 9 11 5 6 1030.1 1030.1 0.0
29/09:40pm 6.5 4.0 6.4 99 0.0 SW 9 11 5 6 1030.0 1030.0 0.0
29/09:30pm 6.4 4.2 6.3 99 0.0 WSW 7 7 4 4 1030.0 1030.0 0.0
29/09:04pm 7.0 5.0 6.9 99 0.0 SW 7 9 4 5 1029.9 1029.9 0.0
29/09:00pm 7.9 6.1 7.8 99 0.0 SW 7 9 4 5 1029.9 1029.9 0.0
29/08:51pm 7.5 5.2 7.4 99 0.0 SW 9 11 5 6 1029.8 1029.8 0.0
29/08:39pm 7.9 5.7 7.8 99 0.0 SSW 9 11 5 6 1029.8 1029.8 0.0
29/08:30pm 7.7 6.8 7.6 99 0.0 S 2 9 1 5 1029.8 1029.8 0.0
29/08:24pm 8.1 7.6 8.0 99 0.0 CALM 0 0 0 0 1029.7 1029.7 0.0
29/08:05pm 8.6 8.3 8.5 99 0.0 CALM 0 0 0 0 1029.7 1029.7 0.0
29/08:00pm 9.4 9.3 9.3 99 0.0 CALM 0 6 0 3 1029.7 1029.7 0.0
29/07:47pm 9.2 9.0 9.1 99 0.0 CALM 0 0 0 0 1029.7 1029.7 0.0
29/07:30pm 9.6 8.4 9.5 99 0.0 S 6 7 3 4 1029.6 1029.6 0.0
29/07:00pm 11.5 11.9 11.3 99 0.1 CALM 0 0 0 0 1029.5 1029.5 0.0
29/06:30pm 11.8 12.2 11.3 97 0.3 CALM 0 0 0 0 1029.5 1029.5 0.0
29/06:00pm 11.9 11.0 11.4 97 0.3 ESE 7 7 4 4 1029.2 1029.2 0.0
29/05:30pm 12.3 12.0 11.4 94 0.5 E 4 6 2 3 1029.1 1029.1 0.0
29/05:00pm 12.5 12.1 11.2 92 0.7 NE 4 6 2 3 1029.1 1029.1 0.0
29/04:30pm 13.0 12.2 10.9 87 1.1 NE 6 9 3 5 1029.0 1029.0 0.0
29/04:00pm 13.2 11.6 11.4 89 0.9 NE 11 13 6 7 1028.8 1028.8 0.0
29/03:30pm 13.2 11.4 10.9 86 1.2 NE 11 15 6 8 1028.7 1028.7 0.0
29/03:00pm 13.4 11.6 10.8 84 1.4 NE 11 15 6 8 1028.8 1028.8 0.0
29/02:30pm 13.5 11.3 10.9 84 1.4 NE 13 19 7 10 1028.8 1028.8 0.0
29/02:00pm 13.9 11.9 11.4 85 1.3 ENE 13 17 7 9 1029.1 1029.1 0.0
29/01:30pm 13.5 11.3 10.7 83 1.5 NE 13 19 7 10 1029.3 1029.3 0.0
29/01:00pm 13.3 11.1 10.7 84 1.3 NE 13 19 7 10 1029.3 1029.3 0.0
29/12:30pm 13.6 11.0 10.6 82 1.6 NE 15 19 8 10 1029.4 1029.4 0.0
29/12:00pm 13.9 11.5 9.9 77 2.0 NE 13 17 7 9 1029.8 1029.8 0.0
29/11:30am 13.7 11.6 9.9 78 2.0 ENE 11 17 6 9 1030.1 1030.1 0.0
29/11:00am 13.5 11.2 10.5 82 1.6 ENE 13 17 7 9 1030.0 1030.0 0.0
29/10:30am 13.3 10.9 10.1 81 1.7 ENE 13 17 7 9 1030.1 1030.1 0.0
29/10:00am 13.3 11.4 10.5 83 1.4 E 11 15 6 8 1030.2 1030.2 0.0
29/09:30am 12.6 11.4 10.3 86 1.2 SE 7 9 4 5 1030.4 1030.4 0.0
29/09:16am 12.9 11.5 11.0 88 1.0 SSE 9 11 5 6 1030.4 1030.4 0.0
29/09:00am 12.1 10.4 9.7 85 1.2 SE 9 11 5 6 1030.4 1030.4 0.2
29/08:36am 11.1 11.0 10.9 99 0.1 SSW 2 6 1 3 1030.2 1030.2 0.2
29/08:30am 10.8 10.3 10.6 99 0.1 SW 4 6 2 3 1030.1 1030.1 0.2
29/08:00am 8.5 8.1 8.4 99 0.0 CALM 0 0 0 0 1029.9 1029.9 0.2
29/07:30am 9.3 9.2 9.3 100 0.0 CALM 0 0 0 0 1029.6 1029.6 0.2
29/07:13am 8.9 7.9 8.9 100 0.0 WSW 4 7 2 4 1029.5 1029.5 0.2
29/07:00am 8.8 7.8 8.8 100 0.0 WSW 4 6 2 3 1029.4 1029.4 0.2
29/06:30am 8.5 6.5 8.5 100 0.0 WSW 9 11 5 6 1029.1 1029.1 0.2
29/06:00am 7.2 5.2 7.2 100 0.0 WSW 7 9 4 5 1028.8 1028.8 0.2
29/05:56am 7.3 5.0 7.3 100 0.0 WSW 9 11 5 6 1028.8 1028.8 0.2
29/05:30am 6.0 3.7 5.9 99 0.0 WSW 7 9 4 5 1028.5 1028.5 0.2
29/05:00am 7.3 5.3 7.2 99 0.0 S 7 7 4 4 1028.5 1028.5 0.2
29/04:40am 9.1 7.7 9.0 99 0.0 SSE 6 7 3 4 1028.5 1028.5 0.2
29/04:30am 9.2 7.9 9.1 99 0.0 SSE 6 7 3 4 1028.5 1028.5 0.2
29/04:00am 10.0 8.3 9.9 99 0.0 ESE 9 13 5 7 1028.3 1028.3 0.2
29/03:30am 10.3 9.0 10.1 99 0.1 S 7 11 4 6 1028.2 1028.2 0.2
29/03:00am 10.1 8.5 10.1 100 0.0 SSE 9 11 5 6 1028.3 1028.3 0.2
29/02:30am 10.1 9.0 9.9 99 0.1 SE 6 7 3 4 1028.5 1028.5 0.2
29/02:00am 10.4 10.2 10.4 100 0.0 SSE 2 6 1 3 1028.7 1028.7 0.2
29/01:30am 10.6 9.4 10.4 99 0.1 SSE 7 9 4 5 1028.8 1028.8 0.2
29/01:19am 10.8 9.3 10.6 99 0.1 SSE 9 11 5 6 1028.8 1028.8 0.2
29/01:15am 10.8 9.3 10.6 99 0.1 SSE 9 11 5 6 1028.8 1028.8 0.2
29/01:00am 10.9 9.8 10.7 99 0.1 ESE 7 9 4 5 1028.8 1028.8 0.2
29/12:30am 10.9 9.5 10.9 100 0.0 S 9 11 5 6 1028.8 1028.8 0.2
29/12:04am 10.7 9.2 10.7 100 0.0 S 9 11 5 6 1028.7 1028.7 0.2
29/12:00am 10.7 9.2 10.7 100 0.0 S 9 13 5 7 1028.7 1028.7 0.2
 
Date/Time
EST
Temp
°C
App
Temp
°C
Dew
Point
Rel
Hum
%
Delta-T
°C
Wind Press
QNH
hPa
Press
MSL
hPa
Rain
since 9 am
mm
Dir
 
Spd
km/h
Gust
km/h
Spd
kts
Gust
kts
28/11:30pm 11.0 10.2 11.0 100 0.0 SSE 6 9 3 5 1028.8 1028.8 0.2
28/11:00pm 11.1 8.2 11.1 100 0.0 ESE 17 19 9 10 1028.9 1028.9 0.2
28/10:56pm 11.1 8.2 11.1 100 0.0 ESE 17 19 9 10 1028.8 1028.8 0.2
28/10:30pm 10.3 8.7 10.3 100 0.0 SSE 9 11 5 6 1028.9 1028.9 0.2
28/10:19pm 9.7 8.0 9.7 100 0.0 SSE 9 11 5 6 1028.8 1028.8 0.2
28/10:00pm 9.9 8.2 9.9 100 0.0 SSE 9 9 5 5 1028.9 1028.9 0.2
28/09:30pm 9.9 8.2 9.9 100 0.0 SSE 9 9 5 5 1028.9 1028.9 0.2
28/09:00pm 9.6 8.4 9.6 100 0.0 ESE 6 7 3 4 1028.9 1028.9 0.2
28/08:30pm 9.7 8.3 9.7 100 0.0 ESE 7 9 4 5 1028.8 1028.8 0.2
28/08:00pm 10.8 9.7 10.8 100 0.0 ESE 7 11 4 6 1028.7 1028.7 0.2
28/07:30pm 11.4 10.1 11.2 99 0.1 E 9 11 5 6 1028.5 1028.5 0.2
28/07:00pm 11.6 10.3 11.4 99 0.1 E 9 13 5 7 1028.4 1028.4 0.2
28/06:30pm 11.4 10.5 11.2 99 0.1 E 7 9 4 5 1028.4 1028.4 0.2
28/06:00pm 12.5 11.9 12.3 99 0.1 E 7 11 4 6 1028.3 1028.3 0.2
28/05:53pm 12.5 11.5 12.3 99 0.1 E 9 13 5 7 1028.3 1028.3 0.2
28/05:30pm 12.8 12.3 12.6 99 0.1 ENE 7 11 4 6 1028.2 1028.2 0.2
28/05:00pm 13.1 12.7 12.9 99 0.1 E 7 13 4 7 1028.0 1028.0 0.2
28/04:53pm 13.0 12.2 12.8 99 0.1 E 9 15 5 8 1028.0 1028.0 0.2
28/04:30pm 13.1 11.4 12.3 95 0.4 E 13 17 7 9 1027.9 1027.9 0.2
28/04:00pm 14.1 13.1 13.3 95 0.4 ENE 11 17 6 9 1027.8 1027.8 0.2
28/03:30pm 14.2 12.8 13.4 95 0.4 E 13 19 7 10 1027.8 1027.8 0.0
28/03:00pm 14.1 12.4 13.5 96 0.3 ENE 15 22 8 12 1027.8 1027.8 0.0
28/02:30pm 13.9 12.2 12.6 92 0.7 E 13 19 7 10 1028.0 1028.0 0.0

Other Formats:

Comma delimited format used in spreadsheet applications
http://www.bom.gov.au/fwo/IDT60801/IDT60801.95957.axf

JavaScript Object Notation format (JSON) in row-major order
http://www.bom.gov.au/fwo/IDT60801/IDT60801.95957.json